KGVE

Gordonsville Municipal Airport

Gordonsville, Virginia, USA
METAR KGVE 230235Z AUTO 21003KT 10SM SCT039 BKN049 21/21 A3002 RMK AO1 T02070207
Observed Flight Rules
May-23 @ 02:35 UTC (33 minutes ago) Visual Flight Rules
Wind Visibility Clouds
210° at 3 knots 10 miles
  • Scattered at 3,900' AGL
  • Broken at 4,900' AGL
Temperatures Readings
Current 21°C / 70°F
Dewpoint 21°C / 70°F
Humidity 100%
Altimeter 30.02" Hg
Pressure 1017 hPa
Elevation 138
METAR KGVE 230235Z AUTO 21003KT 10SM SCT039 BKN049 21/21 A3002 RMK AO1 T02070207
Observed Flight Rules
May-23 @ 02:35 UTC
(33 minutes ago)
VFR
Wind Visibility
210° at 3 knots 10 miles
Clouds
  • Scattered at 3,900' AGL
  • Broken at 4,900' AGL
Temperature Dewpoint
21°C / 70°F 21°C / 70°F
Humidity Altimeter Pressure
100% 30.02" Hg 1017 hPa